Flight Track Log - Related Links

Times and Time Zones

All times are in EDT time to prevent confusion due to time zone crossing. See the AJT744 flight status page for this flight to view local times or setup timezone preferences in your user account.


Time Position Orientation Groundspeed Altitude Reporting Facility
EDT Latitude Longitude Course Direction KTS MPH feet Rate Location/Type
Fri 11:14:58 AM 23.1458 -84.0033 57° Northeast 467 537 37,000  Level Miami Center
Fri 11:15:58 AM 23.2183 -83.8833 57° Northeast 467 537 37,000  Level Miami Center
Fri 11:16:58 AM 23.2886 -83.7631 58° Northeast 467 537 37,000  Level Miami Center
Fri 11:17:58 AM 23.3589 -83.6425 58° Northeast 467 537 37,000  Level Miami Center
Fri 11:18:58 AM 23.4308 -83.5219 57° Northeast 467 537 37,000  Level Miami Center
Fri 11:19:58 AM 23.5031 -83.3992 57° Northeast 467 537 37,000  Level Miami Center
Fri 11:20:58 AM 23.5708 -83.2781 59° Northeast 467 537 37,000  Level Miami Center
Fri 11:21:58 AM 23.6389 -83.1547 59° Northeast 467 537 37,000  Level Miami Center
Fri 11:22:58 AM 23.7106 -83.0314 58° Northeast 472 543 37,000  Level Miami Center
Fri 11:23:58 AM 23.7764 -82.9075 60° Northeast 472 543 37,000  Level Miami Center
Fri 11:24:58 AM 23.8497 -82.7908 55° Northeast 467 537 37,000  Level Miami Center
Fri 11:25:58 AM 23.9192 -82.6692 58° Northeast 467 537 37,000  Level Miami Center
Fri 11:26:58 AM 23.9889 -82.5453 58° Northeast 467 537 37,000  Level Miami Center
Fri 11:27:58 AM 24.0683 -82.4306 53° Northeast 467 537 37,000  Level Miami Center
Fri 11:28:58 AM 24.1431 -82.3269 52° Northeast 472 543 37,000  Level Miami Center
Fri 11:29:58 AM 24.2344 -82.2217 46° Northeast 472 543 37,000  Level Miami Center
Fri 11:30:58 AM 24.3278 -82.1256 43° Northeast 472 543 37,000 -550 Level Miami Center
Fri 11:31:58 AM 24.4272 -82.0294 41° Northeast 466 536 35,900 -2,050 Descending Miami Center
Fri 11:32:58 AM 24.5267 -81.9308 42° Northeast 466 536 32,900 -2,800 Descending Miami Center
Fri 11:33:58 AM 24.6236 -81.8411 40° Northeast 466 536 30,300 -2,250 Descending Miami Center
Fri 11:34:58 AM 24.7250 -81.7422 42° Northeast 466 536 28,400 -2,050 Descending Miami Center
Fri 11:35:58 AM 24.8094 -81.6519 44° Northeast 448 516 26,200 -2,150 Descending Miami Center
Fri 11:36:58 AM 24.9058 -81.5800 34° Northeast 430 495 24,100 -2,100 Descending Miami Center
Fri 11:37:58 AM 24.9997 -81.5125 33° Northeast 409 471 22,000 -2,050 Descending Miami Center
Fri 11:38:58 AM 25.0917 -81.4450 34° Northeast 399 459 20,000 -1,850 Descending Miami Center
Fri 11:39:58 AM 25.1792 -81.3817 33° Northeast 389 448 18,300 -1,650 Descending Miami Center
Fri 11:40:58 AM 25.2625 -81.3250 32° Northeast 368 423 16,700 -1,700 Descending Miami Center
Fri 11:41:58 AM 25.3417 -81.2636 35° Northeast 353 406 14,900 -1,750 Descending Miami Center
Fri 11:42:58 AM 25.4022 -81.1878 49° Northeast 332 382 13,200 -1,600 Descending Miami Center
Fri 11:43:58 AM 25.4669 -81.1211 43° Northeast 320 368 11,700 -1,150 Descending Miami Center
Fri 11:44:58 AM 25.4942 -81.0436 69° East 272 313 10,900 -774 Descending Miami Center
Fri 11:45:31 AM 25.5039 -80.9958 77° East 240 276 10,500 -469 Descending Miami Center
Fri 11:46:02 AM 25.5275 -80.9781 34° Northeast 220 253 10,400 -323 Descending Miami Center
Fri 11:47:04 AM 25.5950 -80.9506 20° North 238 274 10,000 -207 Descending Miami Center
Fri 11:47:58 AM 25.6278 -80.8986 55° Northeast 224 258 10,000 -263 Level Miami Center
Fri 11:48:58 AM 25.6169 -80.8314 100° East 200 230 9,500 -900 Descending Miami Center
Fri 11:49:58 AM 25.5856 -80.7636 117° Southeast 205 236 8,200 -1,000 Descending Miami Center
Fri 11:50:58 AM 25.5644 -80.6917 108° East 215 247 7,500 -550 Descending Miami Center
Fri 11:51:58 AM 25.5703 -80.6294 84° East 215 247 7,100 -450 Descending Miami Center
Fri 11:52:58 AM 25.6072 -80.5639 58° Northeast 220 253 6,600 -800 Descending Miami Center
Fri 11:53:58 AM 25.6531 -80.5769 346° North 196 226 5,500 -750 Descending Miami Center
Fri 11:54:58 AM 25.6531 -80.6528 270° West 198 228 5,100 -713 Descending Miami Center
Fri 11:56:21 AM 25.7064 -80.6914 327° Northwest 229 264 3,800 -833 Descending Miami Center
Fri 11:57:22 AM 25.7658 -80.6564 28° Northeast 228 262 3,100 -362 Descending Miami Center
Fri 11:58:17 AM 25.7717 -80.5944 84° East 225 259 3,100  Level Miami Center
Fri 11:59:18 AM 25.7731 -80.5344 89° East 187 215 3,100 -148 Level Miami Center
Fri 12:00:19 PM 25.7767 -80.4769 86° East 186 214 2,800 -590 Descending Miami Center
Fri 12:01:20 PM 25.7800 -80.4192 86° East 180 207 1,900 -927 Descending Miami Center
Fri 12:02:22 PM 25.7794 -80.3639 91° East 170 196 900 -837 Descending Miami Center
Fri 12:03:29 PM 25.7847 -80.3156 83° East 147 169 100 -716 Descending Miami Center

Login

Don't have an account? Register now (free) for customized features, flight alerts, and more!